This is the latest recevied weather packets stored in our database for station/object W4SNA-4. If no packets are shown the sender has not sent any weather packets the latest 10 day(s).
| Time | Temp. | Humidity | Pressure | Rain* | Wind** | Luminosity | Snow |
|---|---|---|---|---|---|---|---|
| 1778089515 | 17.22° C | 91% | 1009 hPa | 1.02 mm | - | - | - |
| 1778089215 | 17.22° C | 91% | 1009 hPa | 1.02 mm | - | - | - |
| 1778088911 | 17.78° C | 91% | 1009 hPa | 1.02 mm | - | - | - |
| 1778088613 | 17.78° C | 90% | 1009 hPa | 1.02 mm | - | - | - |
| 1778088311 | 17.78° C | 88% | 1009 hPa | 1.02 mm | - | - | - |
| 1778088013 | 18.33° C | 86% | 1009.4 hPa | 0.76 mm | - | - | - |
| 1778087711 | 18.89° C | 85% | 1009.4 hPa | 0.76 mm | - | - | - |
| 1778087412 | 18.89° C | 83% | 1009.4 hPa | 0.51 mm | - | - | - |
| 1778087115 | 19.44° C | 80% | 1009.5 hPa | 0.25 mm | - | - | - |
| 1778086810 | 20° C | 78% | 1009.5 hPa | 0 mm | - | - | - |
| 1778086510 | 20° C | 76% | 1009.5 hPa | 0 mm | - | - | - |
| 1778086211 | 20° C | 76% | 1009.2 hPa | 0 mm | - | - | - |
| 1778085910 | 20.56° C | 75% | 1009.2 hPa | 0 mm | - | - | - |
| 1778085610 | 20.56° C | 74% | 1009.2 hPa | 0 mm | - | - | - |
| 1778085317 | 20.56° C | 74% | 1009.1 hPa | 0 mm | - | - | - |
| 1778085014 | 20.56° C | 74% | 1009.1 hPa | 0 mm | - | - | - |
| 1778084723 | 20.56° C | 73% | 1009.1 hPa | 0 mm | - | - | - |
| 1778084410 | 20.56° C | 74% | 1008.9 hPa | 0 mm | - | - | - |
| 1778084111 | 20.56° C | 73% | 1008.9 hPa | 0 mm | - | - | - |
| 1778083811 | 20.56° C | 72% | 1008.9 hPa | 0 mm | - | - | - |
| 1778083513 | 20.56° C | 72% | 1009 hPa | 0 mm | - | - | - |
| 1778083212 | 20.56° C | 71% | 1009 hPa | 0 mm | - | - | - |
| 1778082923 | 20.56° C | 72% | 1009 hPa | 0 mm | - | - | - |
| 1778082610 | 20° C | 73% | 1008.5 hPa | 0 mm | - | - | - |
| 1778082311 | 20° C | 75% | 1008.5 hPa | 0 mm | - | - | - |
* Rain latest hour (hover to see other rain measurements)
** Current wind speed in m/s (hover to see current wind gust speed)